createdAt,value
2023-02-12T00:05:54.338Z,85.79
2023-02-12T00:17:19.236Z,86.05
2023-02-12T00:28:42.958Z,85.79
2023-02-12T00:51:39.388Z,85.69
2023-02-12T01:02:46.187Z,85.59
2023-02-12T01:13:54.447Z,85.62
2023-02-12T01:25:20.770Z,85.85
2023-02-12T01:36:44.557Z,86.26
2023-02-12T01:48:08.129Z,85.75
2023-02-12T01:59:32.868Z,85.71
2023-02-12T02:10:42.937Z,85.82
2023-02-12T02:22:03.049Z,85.86
2023-02-12T02:33:31.278Z,85.99
2023-02-12T02:44:40.141Z,85.66
2023-02-12T02:55:58.801Z,85.96
2023-02-12T03:07:34.605Z,85.85
2023-02-12T03:18:54.939Z,85.77
2023-02-12T03:30:02.389Z,85.67
2023-02-12T03:41:28.383Z,85.34
2023-02-12T03:52:53.073Z,85.29
2023-02-12T04:04:07.445Z,85.50
2023-02-12T04:15:40.820Z,86.19
2023-02-12T04:27:17.614Z,86.30
2023-02-12T04:38:51.492Z,86.09
2023-02-12T04:50:08.470Z,85.84
2023-02-12T05:01:33.179Z,85.64
2023-02-12T05:12:57.943Z,85.75
2023-02-12T05:24:35.107Z,85.90
2023-02-12T05:35:59.847Z,85.41
2023-02-12T05:47:17.652Z,85.36
2023-02-12T05:58:42.919Z,85.24
2023-02-12T06:10:01.142Z,84.80
2023-02-12T06:21:19.137Z,84.16
2023-02-12T06:32:33.640Z,82.83
2023-02-12T06:43:59.009Z,82.03
2023-02-12T06:54:52.647Z,81.73
2023-02-12T07:06:17.454Z,81.42
2023-02-12T07:16:37.144Z,80.60
2023-02-12T07:27:08.007Z,79.97
2023-02-12T07:38:06.118Z,79.62
2023-02-12T07:49:30.907Z,79.68
2023-02-12T08:00:46.733Z,79.00
2023-02-12T08:11:52.766Z,78.33
2023-02-12T08:23:07.645Z,78.16
2023-02-12T08:34:34.518Z,76.78
2023-02-12T08:44:41.324Z,75.85
2023-02-12T08:55:55.288Z,74.80
2023-02-12T09:06:42.146Z,74.72
2023-02-12T09:18:05.726Z,74.38
2023-02-12T09:29:11.459Z,74.19
2023-02-12T09:40:26.246Z,73.80
2023-02-12T09:51:11.047Z,74.39
2023-02-12T10:02:25.889Z,74.43
2023-02-12T10:13:52.327Z,74.27
2023-02-12T10:25:06.360Z,72.69
2023-02-12T10:36:32.692Z,71.26
2023-02-12T10:47:40.384Z,70.50
2023-02-12T10:58:25.944Z,69.31
2023-02-12T11:09:41.846Z,68.25
2023-02-12T11:20:44.094Z,67.24
2023-02-12T11:31:42.150Z,66.61
2023-02-12T11:42:36.339Z,66.00
2023-02-12T11:53:37.654Z,64.71
2023-02-12T12:04:45.288Z,64.07
2023-02-12T12:16:08.337Z,62.88
2023-02-12T12:27:36.838Z,62.98
2023-02-12T12:39:01.346Z,64.13
2023-02-12T12:50:41.263Z,64.49
2023-02-12T13:01:41.258Z,65.38
2023-02-12T13:13:09.736Z,65.62
2023-02-12T13:24:31.362Z,64.72
2023-02-12T13:35:57.071Z,64.08
2023-02-12T13:47:33.643Z,64.53
2023-02-12T13:58:52.269Z,62.25
2023-02-12T14:09:52.892Z,61.73
2023-02-12T14:21:26.142Z,61.99
2023-02-12T14:32:51.878Z,62.77
2023-02-12T14:44:27.395Z,62.36
2023-02-12T14:55:51.484Z,63.16
2023-02-12T15:07:13.165Z,64.12
2023-02-12T15:18:30.418Z,65.20
2023-02-12T15:29:48.624Z,66.98
2023-02-12T15:41:15.288Z,68.24
2023-02-12T15:52:41.266Z,68.86
2023-02-12T16:04:10.712Z,69.04
2023-02-12T16:15:34.787Z,69.91
2023-02-12T16:27:02.253Z,70.72
2023-02-12T16:38:44.070Z,71.02
2023-02-12T16:50:12.312Z,71.68
2023-02-12T17:01:33.694Z,72.41
2023-02-12T17:13:02.038Z,73.12
2023-02-12T17:24:18.326Z,73.83
2023-02-12T17:35:24.192Z,74.00
2023-02-12T17:46:50.394Z,74.68
2023-02-12T17:58:18.031Z,74.97
2023-02-12T18:09:45.568Z,75.16
2023-02-12T18:20:44.932Z,75.38
2023-02-12T18:31:57.431Z,76.38
2023-02-12T18:42:52.392Z,76.38
2023-02-12T18:54:01.233Z,76.99
2023-02-12T19:05:29.289Z,77.09
2023-02-12T19:16:49.796Z,77.06
2023-02-12T19:28:25.430Z,77.73
2023-02-12T19:39:41.176Z,78.11
2023-02-12T19:50:58.207Z,78.36
2023-02-12T20:02:16.727Z,79.22
2023-02-12T20:13:44.579Z,79.16
2023-02-12T20:25:14.941Z,79.35
2023-02-12T20:36:21.235Z,79.85
2023-02-12T20:47:33.297Z,80.35
2023-02-12T20:59:03.201Z,80.90
2023-02-12T21:10:30.117Z,81.00
2023-02-12T21:22:02.643Z,81.10
2023-02-12T21:33:28.663Z,81.44
2023-02-12T21:44:46.842Z,81.29
2023-02-12T21:56:11.994Z,81.25
2023-02-12T22:07:39.525Z,81.50
2023-02-12T22:18:57.044Z,81.63
2023-02-12T22:30:04.799Z,81.89
2023-02-12T22:41:27.837Z,82.08
2023-02-12T22:52:43.520Z,81.51
2023-02-12T23:04:08.886Z,81.06
2023-02-12T23:15:08.745Z,81.01
2023-02-12T23:26:19.061Z,80.95
2023-02-12T23:37:43.975Z,80.48
2023-02-12T23:48:51.911Z,80.67
